PWSweather.com
Personal Weather Stations
Station Observations

LlefiĆ BadalonaES

Lat: 41.44, Lon: 2.2175

Elevation: 213.254

Station Type: oregon WMR918

http://www.estacionmeteorologicabadalonallefia.com

Latest ConditionsUpdated 3:35:27 PM GMT+01:01 Tuesday, Jul 29, 2014
Currently Today's Max Today's Min Today's Average
Temperature 65.9°F18.8°C 75.0°F23.9°C 65.2°F18.4°C 70.7°F21.5°C
Dew Point 62.9°F17.2°C 68.3°F20.2°C 49.6°F9.8°C 60.1°F15.6°C
Winds 8.9 mph SE14.3 kmh SE 19.4 mph SW31.2 kmh SW - 5.6 mph 9.0 kmh
Wind Gusts 16.0 mph25.7 kmh 33.1 mph53.3 kmh - -
Humidity 90% 95% 47% 71%
Pressure 29.88 in1011.9 mb 29.88 in1011.9 mb 29.82 in1009.8 mb -
Precipitation - 0.04 in1.0 mm - -
Hour Temp Dew Point Humidity Winds Wind Gusts Pressure Precip Precip Rate Daily Precip Total
03:35 PM 65.9°F18.8°C 62.9°F17.2°C 90% 8.9 mph SE14.3 kmh SE 16.0 mph25.7 kmh 29.88 in1011.9 mb 0.03 in0.8 mm 0.18 in/hr4.6 mm/hr 0.04 in1.0 mm
03:25 PM 65.4°F18.6°C 62.7°F17.1°C 91% 6.7 mph ENE10.8 kmh ENE 22.1 mph35.6 kmh 29.88 in1011.9 mb 0.00 in0.0 mm 0.00 in/hr0.0 mm/hr 0.01 in0.3 mm
03:15 PM 65.2°F18.4°C 61.9°F16.6°C 89% 10.1 mph E16.3 kmh E 25.0 mph40.2 kmh 29.88 in1011.9 mb 0.00 in0.0 mm 0.00 in/hr0.0 mm/hr 0.01 in0.3 mm
03:05 PM 67.6°F19.8°C 59.7°F15.4°C 76% 13.6 mph ENE21.9 kmh ENE 19.5 mph31.4 kmh 29.86 in1011.2 mb 0.00 in0.0 mm 0.00 in/hr0.0 mm/hr 0.01 in0.3 mm
02:55 PM 74.8°F23.8°C 56.0°F13.3°C 52% 12.0 mph SSW19.3 kmh SSW 20.0 mph32.2 kmh 29.86 in1011.2 mb 0.00 in0.0 mm 0.00 in/hr0.0 mm/hr 0.01 in0.3 mm
02:45 PM 74.7°F23.7°C 57.9°F14.4°C 56% 19.0 mph SW30.6 kmh SW 33.1 mph53.3 kmh 29.82 in1009.8 mb 0.00 in0.0 mm 0.00 in/hr0.0 mm/hr 0.01 in0.3 mm
02:35 PM 74.5°F23.6°C 56.7°F13.7°C 54% 19.4 mph SW31.2 kmh SW 33.1 mph53.3 kmh 29.82 in1009.8 mb 0.00 in0.0 mm 0.00 in/hr0.0 mm/hr 0.01 in0.3 mm
02:25 PM 74.3°F23.5°C 58.1°F14.5°C 57% 16.4 mph SW26.4 kmh SW 20.0 mph32.2 kmh 29.82 in1009.8 mb 0.00 in0.0 mm 0.00 in/hr0.0 mm/hr 0.01 in0.3 mm
02:15 PM 74.5°F23.6°C 57.7°F14.3°C 56% 15.9 mph SSW25.6 kmh SSW 30.2 mph48.6 kmh 29.82 in1009.8 mb 0.00 in0.0 mm 0.00 in/hr0.0 mm/hr 0.01 in0.3 mm
02:05 PM 74.5°F23.6°C 58.3°F14.6°C 57% 13.5 mph SSE21.7 kmh SSE 25.0 mph40.2 kmh 29.86 in1011.2 mb 0.00 in0.0 mm 0.00 in/hr0.0 mm/hr 0.01 in0.3 mm
01:55 PM 74.2°F23.4°C 58.5°F14.7°C 58% 11.6 mph S18.7 kmh S 17.7 mph28.5 kmh 29.86 in1011.2 mb 0.00 in0.0 mm 0.00 in/hr0.0 mm/hr 0.01 in0.3 mm
01:45 PM 74.3°F23.5°C 56.1°F13.4°C 53% 15.8 mph SSW25.4 kmh SSW 25.6 mph41.2 kmh 29.86 in1011.2 mb 0.00 in0.0 mm 0.00 in/hr0.0 mm/hr 0.01 in0.3 mm
01:35 PM 74.7°F23.7°C 55.3°F12.9°C 51% 12.8 mph SSW20.6 kmh SSW 25.0 mph40.2 kmh 29.86 in1011.2 mb 0.00 in0.0 mm 0.00 in/hr0.0 mm/hr 0.01 in0.3 mm
01:25 PM 75.0°F23.9°C 56.2°F13.4°C 52% 10.7 mph SW17.2 kmh SW 15.4 mph24.8 kmh 29.86 in1011.2 mb 0.00 in0.0 mm 0.00 in/hr0.0 mm/hr 0.01 in0.3 mm
01:15 PM 74.8°F23.8°C 56.0°F13.3°C 52% 11.8 mph SSW19.0 kmh SSW 22.7 mph36.5 kmh 29.86 in1011.2 mb 0.00 in0.0 mm 0.00 in/hr0.0 mm/hr 0.01 in0.3 mm
01:05 PM 74.5°F23.6°C 57.8°F14.3°C 56% 12.5 mph S20.1 kmh S 20.0 mph32.2 kmh 29.86 in1011.2 mb 0.00 in0.0 mm 0.00 in/hr0.0 mm/hr 0.01 in0.3 mm
12:55 PM 74.8°F23.8°C 57.1°F13.9°C 54% 11.2 mph SW18.0 kmh SW 21.8 mph35.1 kmh 29.86 in1011.2 mb 0.00 in0.0 mm 0.00 in/hr0.0 mm/hr 0.01 in0.3 mm
12:45 PM 74.7°F23.7°C 58.5°F14.7°C 57% 8.4 mph SSW13.5 kmh SSW 16.6 mph26.7 kmh 29.88 in1011.9 mb 0.00 in0.0 mm 0.00 in/hr0.0 mm/hr 0.01 in0.3 mm
12:35 PM 74.3°F23.5°C 57.1°F13.9°C 55% 11.7 mph SSW18.8 kmh SSW 18.9 mph30.4 kmh 29.86 in1011.2 mb 0.00 in0.0 mm 0.00 in/hr0.0 mm/hr 0.01 in0.3 mm
12:25 PM 74.8°F23.8°C 58.1°F14.5°C 56% 6.6 mph SE10.6 kmh SE 12.5 mph20.1 kmh 29.86 in1011.2 mb 0.00 in0.0 mm 0.00 in/hr0.0 mm/hr 0.01 in0.3 mm
12:15 PM 74.2°F23.4°C 57.5°F14.2°C 56% 11.0 mph SSW17.7 kmh SSW 21.2 mph34.1 kmh 29.88 in1011.9 mb 0.00 in0.0 mm 0.00 in/hr0.0 mm/hr 0.01 in0.3 mm
12:05 PM 74.1°F23.4°C 56.4°F13.6°C 54% 8.2 mph S13.2 kmh S 14.2 mph22.9 kmh 29.88 in1011.9 mb 0.00 in0.0 mm 0.00 in/hr0.0 mm/hr 0.01 in0.3 mm
11:55 AM 73.8°F23.2°C 57.1°F13.9°C 56% 8.4 mph SW13.5 kmh SW 18.9 mph30.4 kmh 29.88 in1011.9 mb 0.00 in0.0 mm 0.00 in/hr0.0 mm/hr 0.01 in0.3 mm
11:45 AM 73.6°F23.1°C 57.4°F14.1°C 57% 8.2 mph S13.2 kmh S 17.1 mph27.5 kmh 29.88 in1011.9 mb 0.00 in0.0 mm 0.00 in/hr0.0 mm/hr 0.01 in0.3 mm
11:35 AM 72.5°F22.5°C 57.8°F14.3°C 60% 8.2 mph SW13.2 kmh SW 10.5 mph16.9 kmh 29.88 in1011.9 mb 0.00 in0.0 mm 0.00 in/hr0.0 mm/hr 0.01 in0.3 mm
11:25 AM 72.1°F22.3°C 57.5°F14.2°C 60% 9.3 mph S15.0 kmh S 14.2 mph22.9 kmh 29.88 in1011.9 mb 0.00 in0.0 mm 0.00 in/hr0.0 mm/hr 0.01 in0.3 mm
11:15 AM 71.9°F22.2°C 57.3°F14.1°C 60% 7.9 mph S12.7 kmh S 11.3 mph18.2 kmh 29.88 in1011.9 mb 0.00 in0.0 mm 0.00 in/hr0.0 mm/hr 0.01 in0.3 mm
11:05 AM 72.1°F22.3°C 57.9°F14.4°C 61% 7.3 mph SE11.7 kmh SE 16.0 mph25.7 kmh 29.88 in1011.9 mb 0.00 in0.0 mm 0.00 in/hr0.0 mm/hr 0.01 in0.3 mm
10:55 AM 72.8°F22.7°C 57.1°F13.9°C 58% 7.1 mph S11.4 kmh S 9.9 mph15.9 kmh 29.88 in1011.9 mb 0.00 in0.0 mm 0.00 in/hr0.0 mm/hr 0.01 in0.3 mm
10:45 AM 73.0°F22.8°C 54.8°F12.7°C 53% 4.9 mph SW7.9 kmh SW 8.1 mph13.0 kmh 29.86 in1011.2 mb 0.00 in0.0 mm 0.00 in/hr0.0 mm/hr 0.01 in0.3 mm
10:35 AM 72.9°F22.7°C 55.2°F12.9°C 54% 5.4 mph SW8.7 kmh SW 12.5 mph20.1 kmh 29.86 in1011.2 mb 0.00 in0.0 mm 0.00 in/hr0.0 mm/hr 0.01 in0.3 mm
10:25 AM 72.7°F22.6°C 54.6°F12.6°C 53% 2.5 mph SW4.0 kmh SW 6.4 mph10.3 kmh 29.86 in1011.2 mb 0.00 in0.0 mm 0.00 in/hr0.0 mm/hr 0.01 in0.3 mm
10:15 AM 72.3°F22.4°C 54.2°F12.3°C 53% 8.1 mph SW13.0 kmh SW 11.3 mph18.2 kmh 29.86 in1011.2 mb 0.00 in0.0 mm 0.00 in/hr0.0 mm/hr 0.01 in0.3 mm
10:05 AM 72.3°F22.4°C 53.2°F11.8°C 51% 5.5 mph SSW8.9 kmh SSW 11.3 mph18.2 kmh 29.88 in1011.9 mb 0.00 in0.0 mm 0.00 in/hr0.0 mm/hr 0.01 in0.3 mm
09:55 AM 72.0°F22.2°C 52.3°F11.3°C 50% 4.5 mph W7.2 kmh W 10.5 mph16.9 kmh 29.88 in1011.9 mb 0.00 in0.0 mm 0.00 in/hr0.0 mm/hr 0.01 in0.3 mm
09:45 AM 72.0°F22.2°C 51.8°F11.0°C 49% 1.7 mph WSW2.7 kmh WSW 7.0 mph11.3 kmh 29.86 in1011.2 mb 0.00 in0.0 mm 0.00 in/hr0.0 mm/hr 0.01 in0.3 mm
09:35 AM 71.2°F21.8°C 50.0°F10.0°C 47% 7.2 mph SW11.6 kmh SW 13.1 mph21.1 kmh 29.86 in1011.2 mb 0.00 in0.0 mm 0.00 in/hr0.0 mm/hr 0.01 in0.3 mm
09:25 AM 70.9°F21.6°C 49.6°F9.8°C 47% 7.1 mph SSW11.4 kmh SSW 9.9 mph15.9 kmh 29.86 in1011.2 mb 0.00 in0.0 mm 0.00 in/hr0.0 mm/hr 0.01 in0.3 mm
09:15 AM 70.4°F21.3°C 50.3°F10.2°C 49% Calm Calm 4.1 mph6.6 kmh 29.88 in1011.9 mb 0.00 in0.0 mm 0.00 in/hr0.0 mm/hr 0.01 in0.3 mm
09:05 AM 70.3°F21.3°C 49.7°F9.8°C 48% 4.2 mph WSW6.8 kmh WSW 8.1 mph13.0 kmh 29.88 in1011.9 mb 0.00 in0.0 mm 0.00 in/hr0.0 mm/hr 0.01 in0.3 mm
08:55 AM 70.2°F21.2°C 50.6°F10.3°C 50% Calm Calm 4.1 mph6.6 kmh 29.88 in1011.9 mb 0.00 in0.0 mm 0.00 in/hr0.0 mm/hr 0.01 in0.3 mm
08:45 AM 70.3°F21.3°C 51.3°F10.7°C 51% 1.3 mph W2.1 kmh W 4.6 mph7.4 kmh 29.86 in1011.2 mb 0.00 in0.0 mm 0.00 in/hr0.0 mm/hr 0.01 in0.3 mm
08:35 AM 70.3°F21.3°C 51.3°F10.7°C 51% 2.9 mph WSW4.7 kmh WSW 7.6 mph12.2 kmh 29.86 in1011.2 mb 0.00 in0.0 mm 0.00 in/hr0.0 mm/hr 0.01 in0.3 mm
08:25 AM 70.2°F21.2°C 50.6°F10.3°C 50% 2.8 mph SW4.5 kmh SW 7.6 mph12.2 kmh 29.86 in1011.2 mb 0.00 in0.0 mm 0.00 in/hr0.0 mm/hr 0.01 in0.3 mm
08:15 AM 70.0°F21.1°C 50.5°F10.3°C 50% 4.3 mph SSW6.9 kmh SSW 6.4 mph10.3 kmh 29.86 in1011.2 mb 0.00 in0.0 mm 0.00 in/hr0.0 mm/hr 0.01 in0.3 mm
08:05 AM 70.0°F21.1°C 51.0°F10.6°C 51% 2.7 mph SSW4.3 kmh SSW 4.1 mph6.6 kmh 29.86 in1011.2 mb 0.00 in0.0 mm 0.00 in/hr0.0 mm/hr 0.01 in0.3 mm
07:55 AM 69.6°F20.9°C 52.2°F11.2°C 54% 2.8 mph WSW4.5 kmh WSW 5.2 mph8.4 kmh 29.86 in1011.2 mb 0.00 in0.0 mm 0.00 in/hr0.0 mm/hr 0.01 in0.3 mm
07:45 AM 69.4°F20.8°C 54.5°F12.5°C 59% 1.6 mph SW2.6 kmh SW -- 29.86 in1011.2 mb 0.00 in0.0 mm 0.00 in/hr0.0 mm/hr 0.01 in0.3 mm
07:35 AM 69.3°F20.7°C 56.6°F13.7°C 64% 3.2 mph W5.1 kmh W 7.0 mph11.3 kmh 29.86 in1011.2 mb 0.00 in0.0 mm 0.00 in/hr0.0 mm/hr 0.01 in0.3 mm
07:25 AM 69.1°F20.6°C 58.5°F14.7°C 69% Calm Calm -- 29.86 in1011.2 mb 0.00 in0.0 mm 0.00 in/hr0.0 mm/hr 0.01 in0.3 mm
07:15 AM 69.1°F20.6°C 58.9°F14.9°C 70% Calm Calm -- 29.86 in1011.2 mb 0.00 in0.0 mm 0.00 in/hr0.0 mm/hr 0.01 in0.3 mm
07:05 AM 69.1°F20.6°C 58.9°F14.9°C 70% Calm Calm -- 29.86 in1011.2 mb 0.00 in0.0 mm 0.00 in/hr0.0 mm/hr 0.01 in0.3 mm
06:55 AM 68.9°F20.5°C 58.7°F14.8°C 70% Calm Calm -- 29.86 in1011.2 mb 0.00 in0.0 mm 0.00 in/hr0.0 mm/hr 0.01 in0.3 mm
06:45 AM 68.7°F20.4°C 58.5°F14.7°C 70% Calm Calm -- 29.86 in1011.2 mb 0.00 in0.0 mm 0.00 in/hr0.0 mm/hr 0.01 in0.3 mm
06:35 AM 68.7°F20.4°C 58.1°F14.5°C 69% Calm Calm -- 29.86 in1011.2 mb 0.00 in0.0 mm 0.00 in/hr0.0 mm/hr 0.01 in0.3 mm
06:25 AM 68.7°F20.4°C 58.9°F14.9°C 71% Calm Calm -- 29.86 in1011.2 mb 0.00 in0.0 mm 0.00 in/hr0.0 mm/hr 0.01 in0.3 mm
06:15 AM 68.5°F20.3°C 58.8°F14.9°C 71% Calm Calm -- 29.86 in1011.2 mb 0.00 in0.0 mm 0.00 in/hr0.0 mm/hr 0.01 in0.3 mm
06:05 AM 68.4°F20.2°C 59.0°F15.0°C 72% Calm Calm 7.0 mph11.3 kmh 29.86 in1011.2 mb 0.00 in0.0 mm 0.00 in/hr0.0 mm/hr 0.01 in0.3 mm
05:55 AM 68.2°F20.1°C 61.4°F16.3°C 79% Calm Calm -- 29.86 in1011.2 mb 0.00 in0.0 mm 0.00 in/hr0.0 mm/hr 0.01 in0.3 mm
05:45 AM 68.2°F20.1°C 62.8°F17.1°C 83% 3.3 mph E5.3 kmh E 7.0 mph11.3 kmh 29.82 in1009.8 mb 0.00 in0.0 mm 0.00 in/hr0.0 mm/hr 0.01 in0.3 mm
05:35 AM 68.9°F20.5°C 65.5°F18.6°C 89% Calm Calm 5.2 mph8.4 kmh 29.82 in1009.8 mb 0.00 in0.0 mm 0.00 in/hr0.0 mm/hr 0.01 in0.3 mm
05:25 AM 68.7°F20.4°C 65.0°F18.3°C 88% Calm Calm 6.4 mph10.3 kmh 29.82 in1009.8 mb 0.00 in0.0 mm 0.00 in/hr0.0 mm/hr 0.01 in0.3 mm
05:15 AM 68.5°F20.3°C 65.2°F18.4°C 89% 5.6 mph SE9.0 kmh SE 10.5 mph16.9 kmh 29.82 in1009.8 mb 0.00 in0.0 mm 0.00 in/hr0.0 mm/hr 0.01 in0.3 mm
05:05 AM 68.9°F20.5°C 65.8°F18.8°C 90% Calm Calm -- 29.82 in1009.8 mb 0.01 in0.3 mm 0.01 in/hr0.3 mm/hr 0.01 in0.3 mm
04:55 AM 68.9°F20.5°C 65.8°F18.8°C 90% Calm Calm -- 29.82 in1009.8 mb 0.00 in0.0 mm 0.00 in/hr0.0 mm/hr 0.00 in0.0 mm
04:45 AM 69.1°F20.6°C 66.0°F18.9°C 90% Calm Calm -- 29.82 in1009.8 mb 0.00 in0.0 mm 0.00 in/hr0.0 mm/hr 0.00 in0.0 mm
04:35 AM 69.1°F20.6°C 66.0°F18.9°C 90% Calm Calm -- 29.82 in1009.8 mb 0.00 in0.0 mm 0.00 in/hr0.0 mm/hr 0.00 in0.0 mm
04:25 AM 69.1°F20.6°C 66.0°F18.9°C 90% Calm Calm -- 29.82 in1009.8 mb 0.00 in0.0 mm 0.00 in/hr0.0 mm/hr 0.00 in0.0 mm
04:15 AM 69.1°F20.6°C 66.0°F18.9°C 90% Calm Calm 4.6 mph7.4 kmh 29.82 in1009.8 mb 0.00 in0.0 mm 0.00 in/hr0.0 mm/hr 0.00 in0.0 mm
04:05 AM 69.1°F20.6°C 66.0°F18.9°C 90% 1.0 mph N1.6 kmh N 5.2 mph8.4 kmh 29.82 in1009.8 mb 0.00 in0.0 mm 0.00 in/hr0.0 mm/hr 0.00 in0.0 mm
03:55 AM 69.3°F20.7°C 66.2°F19.0°C 90% 2.6 mph NE4.2 kmh NE 10.5 mph16.9 kmh 29.82 in1009.8 mb 0.00 in0.0 mm 0.00 in/hr0.0 mm/hr 0.00 in0.0 mm
03:45 AM 69.3°F20.7°C 66.2°F19.0°C 90% 4.7 mph NE7.6 kmh NE 8.1 mph13.0 kmh 29.82 in1009.8 mb 0.00 in0.0 mm 0.00 in/hr0.0 mm/hr 0.00 in0.0 mm
03:35 AM 69.1°F20.6°C 66.4°F19.1°C 91% 7.8 mph NE12.6 kmh NE 10.7 mph17.2 kmh 29.82 in1009.8 mb 0.00 in0.0 mm 0.00 in/hr0.0 mm/hr 0.00 in0.0 mm
03:25 AM 69.0°F20.6°C 66.6°F19.2°C 92% 5.7 mph S9.2 kmh S 5.2 mph8.4 kmh 29.82 in1009.8 mb 0.00 in0.0 mm 0.00 in/hr0.0 mm/hr 0.00 in0.0 mm
03:15 AM 68.9°F20.5°C 66.8°F19.3°C 93% 2.1 mph SSW3.4 kmh SSW 4.6 mph7.4 kmh 29.82 in1009.8 mb 0.00 in0.0 mm 0.00 in/hr0.0 mm/hr 0.00 in0.0 mm
03:05 AM 68.9°F20.5°C 66.8°F19.3°C 93% 7.6 mph NNE12.2 kmh NNE 9.9 mph15.9 kmh 29.82 in1009.8 mb 0.00 in0.0 mm 0.00 in/hr0.0 mm/hr 0.00 in0.0 mm
02:55 AM 69.1°F20.6°C 67.0°F19.4°C 93% 7.1 mph NE11.4 kmh NE 14.2 mph22.9 kmh 29.82 in1009.8 mb 0.00 in0.0 mm 0.00 in/hr0.0 mm/hr 0.00 in0.0 mm
02:45 AM 69.3°F20.7°C 67.1°F19.5°C 93% 5.8 mph ENE9.3 kmh ENE 9.9 mph15.9 kmh 29.82 in1009.8 mb 0.00 in0.0 mm 0.00 in/hr0.0 mm/hr 0.00 in0.0 mm
02:35 AM 69.4°F20.8°C 67.3°F19.6°C 93% 4.7 mph NE7.6 kmh NE 11.3 mph18.2 kmh 29.86 in1011.2 mb 0.00 in0.0 mm 0.00 in/hr0.0 mm/hr 0.00 in0.0 mm
02:25 AM 69.6°F20.9°C 67.5°F19.7°C 93% 7.8 mph NE12.6 kmh NE 13.7 mph22.0 kmh 29.86 in1011.2 mb 0.00 in0.0 mm 0.00 in/hr0.0 mm/hr 0.00 in0.0 mm
02:15 AM 69.6°F20.9°C 67.5°F19.7°C 93% 7.5 mph NNE12.1 kmh NNE 10.7 mph17.2 kmh 29.86 in1011.2 mb 0.00 in0.0 mm 0.00 in/hr0.0 mm/hr 0.00 in0.0 mm
02:05 AM 69.8°F21.0°C 67.6°F19.8°C 93% 6.9 mph NE11.1 kmh NE 10.7 mph17.2 kmh 29.86 in1011.2 mb 0.00 in0.0 mm 0.00 in/hr0.0 mm/hr 0.00 in0.0 mm
01:55 AM 69.8°F21.0°C 67.7°F19.8°C 93% 5.0 mph NE8.0 kmh NE 11.3 mph18.2 kmh 29.86 in1011.2 mb 0.00 in0.0 mm 0.00 in/hr0.0 mm/hr 0.00 in0.0 mm
01:45 AM 69.8°F21.0°C 67.7°F19.8°C 93% 6.0 mph NE9.7 kmh NE 11.3 mph18.2 kmh 29.86 in1011.2 mb 0.00 in0.0 mm 0.00 in/hr0.0 mm/hr 0.00 in0.0 mm
01:35 AM 69.8°F21.0°C 67.7°F19.8°C 93% 7.0 mph NNE11.3 kmh NNE 10.5 mph16.9 kmh 29.86 in1011.2 mb 0.00 in0.0 mm 0.00 in/hr0.0 mm/hr 0.00 in0.0 mm
01:25 AM 70.0°F21.1°C 68.2°F20.1°C 94% 1.0 mph N1.6 kmh N 4.1 mph6.6 kmh 29.86 in1011.2 mb 0.00 in0.0 mm 0.00 in/hr0.0 mm/hr 0.00 in0.0 mm
01:15 AM 70.0°F21.1°C 68.2°F20.1°C 94% 3.6 mph NNW5.8 kmh NNW 7.0 mph11.3 kmh 29.86 in1011.2 mb 0.00 in0.0 mm 0.00 in/hr0.0 mm/hr 0.00 in0.0 mm
01:05 AM 69.8°F21.0°C 68.0°F20.0°C 94% 5.8 mph NE9.3 kmh NE 10.5 mph16.9 kmh 29.86 in1011.2 mb 0.00 in0.0 mm 0.00 in/hr0.0 mm/hr 1.00 in25.4 mm
12:55 AM 69.8°F21.0°C 68.0°F20.0°C 94% 4.8 mph NE7.7 kmh NE 7.6 mph12.2 kmh 29.86 in1011.2 mb 0.00 in0.0 mm 0.00 in/hr0.0 mm/hr 1.00 in25.4 mm
12:45 AM 69.8°F21.0°C 68.3°F20.2°C 95% 5.3 mph NE8.5 kmh NE 9.9 mph15.9 kmh 29.86 in1011.2 mb 0.00 in0.0 mm 0.00 in/hr0.0 mm/hr 1.00 in25.4 mm
12:35 AM 69.8°F21.0°C 68.3°F20.2°C 95% 2.4 mph NNE3.9 kmh NNE 4.1 mph6.6 kmh 29.86 in1011.2 mb 0.00 in0.0 mm 0.00 in/hr0.0 mm/hr 1.00 in25.4 mm
12:25 AM 69.8°F21.0°C 68.3°F20.2°C 95% 2.8 mph NE4.5 kmh NE 5.2 mph8.4 kmh 29.86 in1011.2 mb 0.00 in0.0 mm 0.00 in/hr0.0 mm/hr 1.00 in25.4 mm
12:15 AM 69.8°F21.0°C 68.3°F20.2°C 95% 3.6 mph NE5.8 kmh NE 6.4 mph10.3 kmh 29.88 in1011.9 mb 0.00 in0.0 mm 0.00 in/hr0.0 mm/hr 1.00 in25.4 mm
12:05 AM 69.6°F20.9°C 68.1°F20.1°C 95% 3.1 mph NE5.0 kmh NE 4.6 mph7.4 kmh 29.88 in1011.9 mb 0.00 in0.0 mm 0.00 in/hr0.0 mm/hr 1.00 in25.4 mm